createdAt,value
2018-07-25T07:14:00.875Z,5.60
2018-07-25T07:16:28.429Z,5.65
2018-07-25T07:18:55.983Z,5.42
2018-07-25T07:21:23.544Z,5.50
2018-07-25T07:23:51.359Z,6.40
2018-07-25T07:26:18.900Z,5.80
2018-07-25T07:28:46.454Z,5.33
2018-07-25T07:31:14.010Z,5.20
2018-07-25T07:33:41.570Z,4.15
2018-07-25T07:36:09.143Z,5.03
2018-07-25T07:38:36.714Z,5.83
2018-07-25T07:41:04.274Z,5.70
2018-07-25T07:43:31.842Z,5.90
2018-07-25T07:45:59.388Z,5.03
2018-07-25T07:48:26.977Z,4.00
2018-07-25T07:50:54.568Z,3.75
2018-07-25T07:53:22.117Z,3.60
2018-07-25T07:55:49.648Z,3.50
2018-07-25T07:58:17.342Z,3.52
2018-07-25T08:00:44.877Z,3.17
2018-07-25T08:03:12.435Z,3.33
2018-07-25T08:05:40.023Z,3.52
2018-07-25T08:08:07.581Z,3.47
2018-07-25T08:10:35.152Z,3.42
2018-07-25T08:13:02.712Z,3.27
2018-07-25T08:15:30.278Z,3.72
2018-07-25T08:17:57.895Z,3.37
2018-07-25T08:20:25.409Z,3.55
2018-07-25T08:22:52.970Z,3.60
2018-07-25T08:25:20.528Z,3.70
2018-07-25T08:27:48.052Z,3.87
2018-07-25T08:30:15.620Z,3.25
2018-07-25T08:32:43.174Z,3.70
2018-07-25T08:35:10.725Z,3.52
2018-07-25T08:37:38.277Z,3.70
2018-07-25T08:40:05.938Z,3.80
2018-07-25T08:42:33.544Z,3.50
2018-07-25T08:45:01.112Z,3.02
2018-07-25T08:47:28.666Z,3.10
2018-07-25T08:49:56.211Z,3.10
2018-07-25T08:52:23.765Z,2.95
2018-07-25T08:54:51.320Z,3.20
2018-07-25T08:57:19.072Z,3.47
2018-07-25T08:59:46.619Z,3.40
2018-07-25T09:02:14.165Z,3.30
2018-07-25T09:04:41.760Z,3.10
2018-07-25T09:07:09.307Z,3.27
2018-07-25T09:09:36.877Z,3.55
2018-07-25T09:12:04.491Z,3.52
2018-07-25T09:14:32.080Z,3.58
2018-07-25T09:16:59.658Z,3.72
2018-07-25T09:19:27.184Z,3.08
2018-07-25T09:21:54.759Z,3.35
2018-07-25T09:24:22.308Z,3.10
2018-07-25T09:26:49.865Z,3.30
2018-07-25T09:29:17.418Z,3.80
2018-07-25T09:31:44.968Z,3.60
2018-07-25T09:37:31.117Z,3.70
2018-07-25T09:40:02.953Z,3.60
2018-07-25T09:42:30.526Z,3.87
2018-07-25T09:44:58.118Z,4.00
2018-07-25T09:47:25.703Z,3.87
2018-07-25T09:49:53.237Z,3.55
2018-07-25T09:52:20.853Z,4.20
2018-07-25T09:54:48.402Z,3.98
2018-07-25T09:57:15.967Z,4.12
2018-07-25T09:59:43.516Z,4.03
2018-07-25T10:02:11.338Z,4.00
2018-07-25T10:04:38.912Z,4.10
2018-07-25T10:07:06.515Z,3.90
2018-07-25T10:09:34.007Z,3.98
2018-07-25T10:12:01.582Z,4.03
2018-07-25T10:14:29.147Z,3.85
2018-07-25T10:16:56.712Z,3.92
2018-07-25T10:19:24.272Z,3.80
2018-07-25T10:21:51.875Z,3.83
2018-07-25T10:24:19.476Z,4.05
2018-07-25T10:26:46.984Z,3.50
2018-07-25T10:29:14.569Z,4.10
2018-07-25T10:31:42.129Z,4.37
2018-07-25T10:34:09.698Z,3.70
2018-07-25T10:36:37.510Z,3.75
2018-07-25T10:39:06.633Z,2.95
2018-07-25T10:41:34.164Z,4.62
2018-07-25T10:44:01.786Z,3.60
2018-07-25T10:46:29.404Z,3.42
2018-07-25T10:48:57.216Z,3.50
2018-07-25T10:51:24.735Z,3.25
2018-07-25T10:53:52.290Z,3.20
2018-07-25T10:56:19.852Z,3.40
2018-07-25T10:58:47.418Z,3.20
2018-07-25T11:01:14.965Z,2.98
2018-07-25T11:03:42.536Z,2.60
2018-07-25T11:06:10.100Z,2.95
2018-07-25T11:08:37.708Z,2.95
2018-07-25T11:11:05.267Z,3.30
2018-07-25T11:13:32.828Z,2.95
2018-07-25T11:16:00.498Z,2.87
2018-07-25T11:18:28.094Z,2.62
2018-07-25T11:20:55.846Z,3.00
2018-07-25T11:23:23.414Z,2.47
2018-07-25T11:25:50.961Z,2.40
2018-07-25T11:28:18.530Z,3.05
2018-07-25T11:30:46.123Z,2.58
2018-07-25T11:33:13.685Z,2.33
2018-07-25T11:35:41.236Z,2.62
2018-07-25T11:38:08.868Z,2.60
2018-07-25T11:40:36.368Z,2.60
2018-07-25T11:43:04.196Z,2.42
2018-07-25T11:45:31.733Z,2.40
2018-07-25T11:47:59.291Z,2.27
2018-07-25T11:50:26.888Z,2.00
2018-07-25T11:52:54.832Z,1.98
2018-07-25T11:55:22.447Z,2.12
2018-07-25T11:57:49.954Z,2.10
2018-07-25T12:00:17.500Z,2.30
2018-07-25T12:02:45.083Z,2.37
2018-07-25T12:05:12.654Z,2.72
2018-07-25T12:07:40.193Z,2.55
2018-07-25T12:10:07.783Z,2.25
2018-07-25T12:12:35.363Z,2.10
2018-07-25T12:15:03.409Z,2.10
2018-07-25T12:17:31.089Z,2.50
2018-07-25T12:19:58.650Z,2.40
2018-07-25T12:22:26.196Z,2.70
2018-07-25T12:24:53.766Z,2.60
2018-07-25T12:27:21.325Z,2.60
2018-07-25T12:29:48.919Z,2.60
2018-07-25T12:32:16.481Z,2.40
2018-07-25T12:34:44.035Z,2.47
2018-07-25T12:37:11.601Z,2.35
2018-07-25T12:39:39.175Z,2.20
2018-07-25T12:42:06.740Z,2.45
2018-07-25T12:44:34.307Z,2.60
2018-07-25T12:47:01.890Z,2.30
2018-07-25T12:49:29.443Z,2.70
2018-07-25T12:51:57.021Z,2.80
2018-07-25T12:54:24.603Z,2.40
2018-07-25T12:56:52.186Z,2.90
2018-07-25T12:59:19.755Z,2.85
2018-07-25T13:01:47.316Z,2.92
2018-07-25T13:04:14.865Z,2.60
2018-07-25T13:06:42.439Z,2.90
2018-07-25T13:09:11.179Z,2.90
2018-07-25T13:11:38.699Z,3.10
2018-07-25T13:14:06.777Z,3.02
2018-07-25T13:16:34.381Z,2.98
2018-07-25T13:19:01.972Z,2.90
2018-07-25T13:21:33.345Z,3.30
2018-07-25T13:24:00.913Z,3.40
2018-07-25T13:26:28.481Z,3.05
2018-07-25T13:28:56.155Z,3.17
2018-07-25T13:31:23.893Z,3.40
2018-07-25T13:33:51.485Z,3.30
2018-07-25T13:36:19.085Z,3.42
2018-07-25T13:38:50.061Z,3.50
2018-07-25T13:41:17.657Z,3.33
2018-07-25T13:43:45.221Z,3.45
2018-07-25T13:46:13.006Z,3.67
2018-07-25T13:48:40.421Z,3.20
2018-07-25T13:51:08.029Z,3.10
2018-07-25T13:53:35.657Z,3.40
2018-07-25T13:56:03.253Z,3.55
2018-07-25T13:58:30.852Z,3.50
2018-07-25T14:00:58.439Z,3.35
2018-07-25T14:03:26.029Z,3.60
2018-07-25T14:05:53.629Z,3.20
2018-07-25T14:08:21.181Z,3.35
2018-07-25T14:10:48.782Z,3.27
2018-07-25T14:13:16.348Z,3.60
2018-07-25T14:15:43.914Z,3.30
2018-07-25T14:18:11.853Z,3.42
2018-07-25T14:20:39.338Z,3.70
2018-07-25T14:23:06.920Z,3.40
2018-07-25T14:25:34.477Z,3.40
2018-07-25T14:28:02.065Z,3.42
2018-07-25T14:30:29.697Z,3.40
2018-07-25T14:32:57.288Z,3.30
2018-07-25T14:35:24.736Z,3.80
2018-07-25T14:37:52.383Z,3.70
2018-07-25T14:40:20.135Z,3.50
2018-07-25T14:42:47.576Z,3.60
2018-07-25T14:45:15.126Z,3.77
2018-07-25T14:47:42.700Z,3.50
2018-07-25T14:50:10.305Z,3.37
2018-07-25T14:52:37.873Z,3.10
2018-07-25T14:55:05.440Z,2.90
2018-07-25T14:57:33.001Z,3.20
2018-07-25T15:00:00.564Z,3.27
2018-07-25T15:02:28.162Z,3.05
2018-07-25T15:04:55.692Z,3.20
2018-07-25T15:07:23.278Z,3.20
2018-07-25T15:09:50.856Z,3.55
2018-07-25T15:12:23.079Z,3.17
2018-07-25T15:14:50.633Z,3.30
2018-07-25T15:17:18.194Z,3.20
2018-07-25T15:19:45.761Z,3.42
2018-07-25T15:22:13.325Z,3.30
2018-07-25T15:24:40.892Z,3.45
2018-07-25T15:27:08.455Z,3.45
2018-07-25T15:29:36.079Z,3.37
2018-07-25T15:32:03.606Z,3.30
2018-07-25T15:34:31.168Z,3.40
2018-07-25T15:36:58.772Z,3.27
2018-07-25T15:39:26.749Z,3.20
2018-07-25T15:41:55.629Z,3.30
2018-07-25T15:44:24.315Z,3.45
2018-07-25T15:46:51.921Z,3.30
2018-07-25T15:49:19.644Z,3.58
2018-07-25T15:51:47.217Z,3.33
2018-07-25T15:54:14.837Z,3.80
2018-07-25T15:56:42.400Z,3.33
2018-07-25T15:59:09.973Z,4.10
2018-07-25T16:01:37.572Z,3.40
2018-07-25T16:04:05.160Z,3.50
2018-07-25T16:06:32.736Z,3.30
2018-07-25T16:09:00.300Z,3.62
2018-07-25T16:11:27.872Z,3.65
2018-07-25T16:13:55.462Z,3.12
2018-07-25T16:16:23.046Z,3.20
2018-07-25T16:18:50.787Z,3.30
2018-07-25T16:21:18.950Z,3.35
2018-07-25T16:23:46.544Z,3.00
2018-07-25T16:26:14.118Z,3.42
2018-07-25T16:28:41.698Z,3.50
2018-07-25T16:31:09.597Z,3.00
2018-07-25T16:33:37.180Z,2.70
2018-07-25T16:36:05.089Z,2.70
2018-07-25T16:38:32.642Z,3.00
2018-07-25T16:41:00.338Z,3.47
2018-07-25T16:43:27.910Z,3.33
2018-07-25T16:45:55.503Z,3.22
2018-07-25T16:48:23.070Z,3.22
2018-07-25T16:50:50.644Z,3.37
2018-07-25T16:53:18.206Z,3.60
2018-07-25T16:55:45.773Z,4.10
2018-07-25T16:58:13.350Z,4.05
2018-07-25T17:00:40.980Z,5.42
2018-07-25T17:03:08.535Z,3.35
2018-07-25T17:05:36.133Z,3.92
2018-07-25T17:08:03.701Z,4.58
2018-07-25T17:10:31.278Z,3.10
2018-07-25T17:12:58.836Z,3.17
2018-07-25T17:15:26.392Z,3.30
2018-07-25T17:17:54.063Z,3.30
2018-07-25T17:20:21.667Z,3.02
2018-07-25T17:22:49.189Z,3.17
2018-07-25T17:25:16.775Z,3.20
2018-07-25T17:27:44.366Z,3.42
2018-07-25T17:30:11.914Z,3.08
2018-07-25T17:32:39.489Z,2.92
2018-07-25T17:35:07.494Z,3.30
2018-07-25T17:37:35.057Z,3.17
2018-07-25T17:40:02.692Z,3.08
2018-07-25T17:42:30.481Z,3.37
2018-07-25T17:44:58.049Z,3.45
2018-07-25T17:47:25.628Z,3.05
2018-07-25T17:49:53.216Z,3.60
2018-07-25T17:52:20.786Z,3.15
2018-07-25T17:54:48.502Z,3.70
2018-07-25T17:57:16.166Z,3.17
2018-07-25T17:59:43.738Z,3.20
2018-07-25T18:02:11.336Z,3.05
2018-07-25T18:04:38.895Z,3.10
2018-07-25T18:07:06.473Z,2.95
2018-07-25T18:09:34.078Z,3.27
2018-07-25T18:12:01.861Z,3.35
2018-07-25T18:14:29.456Z,3.33
2018-07-25T18:17:04.785Z,2.92
2018-07-25T18:19:32.457Z,3.30
2018-07-25T18:22:00.107Z,3.50
2018-07-25T18:24:27.665Z,3.50
2018-07-25T18:30:02.227Z,3.42
2018-07-25T18:32:29.822Z,3.20
2018-07-25T18:35:16.802Z,3.12
2018-07-25T18:37:44.376Z,3.52
2018-07-25T18:40:11.946Z,3.62
2018-07-25T18:42:39.525Z,3.45
2018-07-25T18:45:07.095Z,3.58
2018-07-25T18:47:34.678Z,3.50
2018-07-25T18:50:02.244Z,2.92
2018-07-25T18:52:29.820Z,3.40
2018-07-25T18:54:57.420Z,3.25
2018-07-25T18:57:24.968Z,4.03
2018-07-25T18:59:52.513Z,4.92
2018-07-25T19:02:20.061Z,3.33
2018-07-25T19:04:47.620Z,2.90
2018-07-25T19:07:15.206Z,3.55
2018-07-25T19:09:42.740Z,3.50
2018-07-25T19:12:10.305Z,3.08
2018-07-25T19:14:43.505Z,3.27
2018-07-25T19:17:11.543Z,3.30
2018-07-25T19:19:39.091Z,3.12
2018-07-25T19:22:06.662Z,3.00
2018-07-25T19:24:34.183Z,4.05
2018-07-25T19:27:01.960Z,3.05
2018-07-25T19:29:29.512Z,3.77
2018-07-25T19:32:03.617Z,3.62
2018-07-25T19:34:39.177Z,3.37
2018-07-25T19:37:17.066Z,3.45
2018-07-25T19:39:44.632Z,3.50
2018-07-25T19:42:20.398Z,3.47
2018-07-25T19:44:47.969Z,3.58
2018-07-25T19:47:15.504Z,3.72
2018-07-25T19:49:43.069Z,3.83
2018-07-25T19:52:10.619Z,3.60
2018-07-25T19:54:38.259Z,3.60
2018-07-25T19:57:05.749Z,3.90
2018-07-25T19:59:33.289Z,4.00
2018-07-25T20:02:00.846Z,4.00
2018-07-25T20:04:41.322Z,3.90
2018-07-25T20:07:22.077Z,3.85
2018-07-25T20:09:49.637Z,3.98
2018-07-25T20:12:41.529Z,4.03
2018-07-25T20:15:14.918Z,3.77
2018-07-25T20:17:42.461Z,3.65
2018-07-25T20:20:10.205Z,3.33
2018-07-25T20:22:37.780Z,3.70
2018-07-25T20:25:05.368Z,3.77
2018-07-25T20:27:33.084Z,3.55
2018-07-25T20:30:00.648Z,3.87
2018-07-25T20:35:33.264Z,3.62
2018-07-25T20:38:04.631Z,3.52
2018-07-25T20:40:32.227Z,3.50
2018-07-25T20:42:59.790Z,3.70
2018-07-25T20:45:27.402Z,3.50
2018-07-25T20:47:54.958Z,3.47
2018-07-25T20:50:22.704Z,3.75
2018-07-25T20:52:50.301Z,3.47
2018-07-25T20:55:17.848Z,3.58
2018-07-25T20:57:45.408Z,3.98
2018-07-25T21:00:13.057Z,3.85
2018-07-25T21:02:41.536Z,4.12
2018-07-25T21:05:09.162Z,4.00
2018-07-25T21:07:36.710Z,4.08
2018-07-25T21:10:04.305Z,3.72
2018-07-25T21:12:31.869Z,4.12
2018-07-25T21:14:59.445Z,4.30
2018-07-25T21:17:26.999Z,4.45
2018-07-25T21:19:54.584Z,3.90
2018-07-25T21:22:22.149Z,4.62
2018-07-25T21:24:49.688Z,4.45
2018-07-25T21:27:17.249Z,4.85
2018-07-25T21:29:44.819Z,4.50
2018-07-25T21:32:12.376Z,4.80
2018-07-25T21:34:39.938Z,4.47
2018-07-25T21:37:07.504Z,4.58
2018-07-25T21:39:35.067Z,4.22
2018-07-25T21:42:02.690Z,4.53
2018-07-25T21:44:30.268Z,4.10
2018-07-25T21:46:57.832Z,4.47
2018-07-25T21:49:25.422Z,4.40
2018-07-25T21:51:52.998Z,4.40
2018-07-25T21:54:20.561Z,14.13
2018-07-25T21:56:48.155Z,4.50
2018-07-25T21:59:15.717Z,4.05
2018-07-25T22:01:43.268Z,4.20
2018-07-25T22:04:10.831Z,4.90
2018-07-25T22:06:38.413Z,4.35
2018-07-25T22:09:08.650Z,4.37
2018-07-25T22:11:36.697Z,4.15
2018-07-25T22:14:04.266Z,3.85
2018-07-25T22:16:31.824Z,4.40
2018-07-25T22:18:59.441Z,4.40
2018-07-25T22:21:27.001Z,4.40
2018-07-25T22:23:54.558Z,4.00
2018-07-25T22:26:22.112Z,4.05
2018-07-25T22:28:49.688Z,4.15
2018-07-25T22:31:17.256Z,4.67
2018-07-25T22:33:44.808Z,4.62
2018-07-25T22:36:12.358Z,4.30
2018-07-25T22:38:39.909Z,4.50
2018-07-25T22:41:07.478Z,4.35
2018-07-25T22:43:35.177Z,4.78
2018-07-25T22:46:02.841Z,4.80
2018-07-25T22:48:30.421Z,4.90
2018-07-25T22:50:57.989Z,5.25
2018-07-25T22:53:25.560Z,4.80
2018-07-25T22:55:53.110Z,4.80
2018-07-25T22:58:20.659Z,5.05
2018-07-25T23:00:48.198Z,5.00
2018-07-25T23:03:15.744Z,4.72
2018-07-25T23:05:43.296Z,4.53
2018-07-25T23:08:10.841Z,4.78
2018-07-25T23:10:38.397Z,4.78
2018-07-25T23:13:05.962Z,4.90
2018-07-25T23:15:33.521Z,5.10
2018-07-25T23:18:01.081Z,4.90
2018-07-25T23:20:28.628Z,5.40
2018-07-25T23:22:57.276Z,5.47
2018-07-25T23:25:25.332Z,5.50
2018-07-25T23:27:54.237Z,5.20
2018-07-25T23:30:21.777Z,5.45
2018-07-25T23:32:50.080Z,4.50
2018-07-25T23:35:18.957Z,5.25
2018-07-25T23:37:46.827Z,5.70
2018-07-25T23:40:14.590Z,5.25
2018-07-25T23:42:42.136Z,5.67
2018-07-25T23:45:09.683Z,4.95
2018-07-25T23:47:37.243Z,5.40
2018-07-25T23:50:04.921Z,5.20
2018-07-25T23:52:32.517Z,5.85
2018-07-25T23:55:00.052Z,5.92
2018-07-25T23:57:27.609Z,5.40
2018-07-25T23:59:55.223Z,5.90
